Station Historical Data
Daily Summary for January 21, 2012 Units:  English    Metric   Both
« Previous Day
Next Day »
Daily Weekly Monthly Yearly Custom
  High: Low: Average:
Temperature: 65.8 °F 36.5 °F 46.5 °F
Dew Point: 62.5 °F 35.7 °F 44.8 °F
Humidity: 97% 85% 94%
Wind Speed: 16.0mph 0.0mph 6.4mph
Wind Gust: 23.0mph - -
Wind- - South
Pressure: 30.08 in 29.76 in -
Precipitation: 0.79 in    
Historical Graphs
 
 
Tabular Data for January 21, 2012
Time Temperature Dew Point Pressure Wind Wind Speed Wind Gust Humidity Rainfall Rate (Hourly) Conditions
00:00 62.3 °F 60.6 °F 29.82 in SSE 5.0 mph 9.0 mph 94% 0.00 in
00:01 62.4 °F 60.7 °F 29.82 in SSE 5.0 mph 8.0 mph 94% 0.00 in
00:06 62.3 °F 60.6 °F 29.82 in South 6.0 mph 9.0 mph 94% 0.00 in
00:11 62.5 °F 60.8 °F 29.82 in South 10.0 mph 10.0 mph 94% 0.52 in
00:16 62.6 °F 60.8 °F 29.81 in South 8.0 mph 9.0 mph 94% 0.19 in
00:21 62.6 °F 60.8 °F 29.81 in SSW 7.0 mph 8.0 mph 94% 0.08 in
00:26 62.7 °F 61.0 °F 29.81 in SSE 8.0 mph 9.0 mph 94% 0.05 in
00:31 62.8 °F 61.0 °F 29.81 in South 7.0 mph 8.0 mph 94% 0.00 in
00:36 62.9 °F 61.2 °F 29.81 in South 6.0 mph 9.0 mph 94% 0.00 in
00:41 63.0 °F 61.2 °F 29.81 in SSE 7.0 mph 9.0 mph 94% 0.00 in
00:46 63.1 °F 61.3 °F 29.81 in SW 8.0 mph 11.0 mph 94% 0.00 in
00:51 63.2 °F 61.5 °F 29.81 in SSE 8.0 mph 9.0 mph 94% 0.00 in
00:56 63.4 °F 61.7 °F 29.81 in South 4.0 mph 10.0 mph 94% 0.00 in
01:01 63.6 °F 61.8 °F 29.81 in South 10.0 mph 15.0 mph 94% 0.00 in
01:06 63.8 °F 62.0 °F 29.81 in South 11.0 mph 11.0 mph 94% 0.00 in
01:11 64.0 °F 61.9 °F 29.81 in SE 6.0 mph 9.0 mph 93% 0.00 in
01:16 64.2 °F 62.1 °F 29.80 in SW 11.0 mph 15.0 mph 93% 0.00 in
01:21 64.5 °F 62.4 °F 29.80 in SW 7.0 mph 12.0 mph 93% 0.00 in
01:26 64.6 °F 62.2 °F 29.80 in SW 8.0 mph 14.0 mph 92% 0.00 in
01:31 64.8 °F 62.4 °F 29.80 in SSW 6.0 mph 14.0 mph 92% 0.00 in
01:36 64.9 °F 62.5 °F 29.80 in South 10.0 mph 14.0 mph 92% 0.00 in
01:41 65.1 °F 62.4 °F 29.80 in SW 11.0 mph 15.0 mph 91% 0.00 in
01:46 65.2 °F 62.5 °F 29.80 in SSW 9.0 mph 12.0 mph 91% 0.00 in
01:51 65.3 °F 62.3 °F 29.80 in SW 7.0 mph 15.0 mph 90% 0.00 in
01:56 65.2 °F 62.2 °F 29.80 in WSW 6.0 mph 15.0 mph 90% 0.00 in
02:01 65.3 °F 62.3 °F 29.80 in SSW 13.0 mph 16.0 mph 90% 0.00 in
02:06 65.3 °F 62.3 °F 29.80 in South 6.0 mph 18.0 mph 90% 0.00 in
02:11 65.4 °F 62.4 °F 29.80 in SSW 16.0 mph 16.0 mph 90% 0.00 in
02:16 65.3 °F 62.0 °F 29.80 in SSW 6.0 mph 14.0 mph 89% 0.00 in
02:21 65.5 °F 62.2 °F 29.80 in SSW 7.0 mph 17.0 mph 89% 0.00 in
02:26 65.5 °F 62.2 °F 29.79 in South 7.0 mph 12.0 mph 89% 0.00 in
02:31 65.5 °F 62.2 °F 29.79 in SSW 7.0 mph 15.0 mph 89% 0.00 in
02:37 65.6 °F 62.3 °F 29.79 in South 5.0 mph 16.0 mph 89% 0.00 in
02:42 65.5 °F 61.9 °F 29.79 in SSW 6.0 mph 14.0 mph 88% 0.00 in
02:47 65.5 °F 61.9 °F 29.79 in SW 13.0 mph 16.0 mph 88% 0.00 in
02:52 65.6 °F 62.0 °F 29.79 in South 9.0 mph 16.0 mph 88% 0.00 in
02:57 65.6 °F 62.0 °F 29.79 in SW 12.0 mph 19.0 mph 88% 0.00 in
03:02 65.6 °F 62.0 °F 29.79 in South 16.0 mph 16.0 mph 88% 0.00 in
03:07 65.5 °F 61.9 °F 29.79 in WSW 7.0 mph 10.0 mph 88% 0.00 in
03:12 65.4 °F 61.8 °F 29.79 in SSW 11.0 mph 16.0 mph 88% 0.00 in
03:17 65.6 °F 61.6 °F 29.78 in SSW 9.0 mph 19.0 mph 87% 0.00 in
03:22 65.5 °F 61.9 °F 29.78 in WSW 4.0 mph 11.0 mph 88% 0.00 in
03:27 65.5 °F 61.5 °F 29.78 in SW 12.0 mph 14.0 mph 87% 0.00 in
03:32 65.6 °F 61.6 °F 29.78 in SW 11.0 mph 14.0 mph 87% 0.00 in
03:37 65.6 °F 61.6 °F 29.77 in SSW 10.0 mph 14.0 mph 87% 0.00 in
03:42 65.6 °F 61.6 °F 29.78 in SW 13.0 mph 16.0 mph 87% 0.00 in
03:47 65.8 °F 61.5 °F 29.78 in SSW 8.0 mph 17.0 mph 86% 0.00 in
03:52 65.7 °F 61.7 °F 29.77 in WSW 10.0 mph 15.0 mph 87% 0.00 in
03:57 65.7 °F 61.4 °F 29.77 in SSW 12.0 mph 19.0 mph 86% 0.00 in
04:02 65.8 °F 61.5 °F 29.77 in SW 10.0 mph 18.0 mph 86% 0.00 in
04:07 65.7 °F 61.4 °F 29.77 in SW 8.0 mph 13.0 mph 86% 0.00 in
04:12 65.6 °F 61.6 °F 29.77 in WSW 15.0 mph 18.0 mph 87% 0.00 in
04:17 65.7 °F 61.7 °F 29.77 in SSW 5.0 mph 23.0 mph 87% 0.00 in
04:22 65.5 °F 61.5 °F 29.77 in SSW 14.0 mph 15.0 mph 87% 0.00 in
04:27 65.4 °F 61.4 °F 29.77 in WSW 7.0 mph 16.0 mph 87% 0.00 in
04:32 65.3 °F 61.3 °F 29.76 in South 14.0 mph 20.0 mph 87% 0.00 in
04:37 65.2 °F 61.2 °F 29.77 in SW 13.0 mph 14.0 mph 87% 0.00 in
04:42 65.3 °F 61.3 °F 29.77 in SW 8.0 mph 16.0 mph 87% 0.00 in
04:47 65.2 °F 61.2 °F 29.77 in SW 12.0 mph 17.0 mph 87% 0.00 in
04:52 65.2 °F 61.6 °F 29.78 in WSW 9.0 mph 14.0 mph 88% 0.00 in
04:57 63.2 °F 58.6 °F 29.79 in NNW 9.0 mph 12.0 mph 85% 0.00 in
05:02 60.6 °F 57.3 °F 29.79 in WNW 9.0 mph 11.0 mph 89% 0.00 in
05:08 59.3 °F 57.0 °F 29.82 in NW 12.0 mph 13.0 mph 92% 2.43 in
05:13 57.7 °F 55.4 °F 29.80 in WNW 5.0 mph 6.0 mph 92% 0.21 in
05:18 56.9 °F 54.9 °F 29.81 in WNW 4.0 mph 6.0 mph 93% 0.12 in
05:23 56.6 °F 54.9 °F 29.83 in West 3.0 mph 6.0 mph 94% 0.08 in
05:28 56.4 °F 54.7 °F 29.82 in Calm   1.0 mph 94% 0.09 in
05:33 56.3 °F 54.6 °F 29.81 in NNE 1.0 mph 2.0 mph 94% 0.13 in
05:38 56.0 °F 54.3 °F 29.81 in ENE 1.0 mph 4.0 mph 94% 0.21 in
05:43 55.9 °F 54.2 °F 29.82 in NW 3.0 mph 3.0 mph 94% 0.20 in
05:48 55.8 °F 54.1 °F 29.83 in West 1.0 mph 2.0 mph 94% 0.13 in
05:53 55.7 °F 54.3 °F 29.84 in West 2.0 mph 4.0 mph 95% 0.96 in
05:58 55.5 °F 54.1 °F 29.83 in NNE 1.0 mph 3.0 mph 95% 0.47 in
06:03 55.2 °F 53.5 °F 29.83 in NW 2.0 mph 3.0 mph 94% 0.39 in
06:08 54.7 °F 53.0 °F 29.82 in NE 5.0 mph 5.0 mph 94% 0.39 in
06:14 54.3 °F 52.9 °F 29.83 in NNW 3.0 mph 6.0 mph 95% 0.31 in
06:18 54.0 °F 52.6 °F 29.83 in NW 5.0 mph 6.0 mph 95% 0.15 in
06:24 53.9 °F 52.5 °F 29.84 in NW 6.0 mph 7.0 mph 95% 0.11 in
06:29 53.8 °F 52.4 °F 29.84 in WNW 4.0 mph 6.0 mph 95% 0.29 in
06:34 53.7 °F 52.3 °F 29.85 in WNW 3.0 mph 6.0 mph 95% 0.31 in
06:39 53.6 °F 52.2 °F 29.85 in NW 4.0 mph 5.0 mph 95% 0.80 in
06:44 53.4 °F 52.0 °F 29.85 in NW 7.0 mph 7.0 mph 95% 0.34 in
06:49 53.2 °F 51.8 °F 29.85 in NW 7.0 mph 7.0 mph 95% 0.34 in
06:54 53.0 °F 51.6 °F 29.85 in NW 7.0 mph 11.0 mph 95% 0.27 in
06:59 52.8 °F 51.4 °F 29.86 in North 8.0 mph 9.0 mph 95% 0.22 in
07:04 52.7 °F 51.3 °F 29.86 in NNW 4.0 mph 5.0 mph 95% 0.40 in
07:09 52.6 °F 51.5 °F 29.85 in NNW 5.0 mph 5.0 mph 96% 0.21 in
07:14 52.4 °F 51.3 °F 29.85 in NNW 5.0 mph 6.0 mph 96% 0.14 in
07:19 52.3 °F 51.2 °F 29.85 in NW 3.0 mph 5.0 mph 96% 0.08 in
07:24 52.2 °F 51.1 °F 29.85 in NW 6.0 mph 8.0 mph 96% 0.06 in
07:29 51.9 °F 50.5 °F 29.85 in NNW 8.0 mph 13.0 mph 95% 0.06 in
07:35 51.5 °F 50.1 °F 29.85 in NW 6.0 mph 12.0 mph 95% 0.05 in
07:40 51.3 °F 49.9 °F 29.86 in NNW 6.0 mph 8.0 mph 95% 0.00 in
07:45 51.0 °F 49.6 °F 29.87 in NNE 4.0 mph 9.0 mph 95% 0.00 in
07:47 50.9 °F 49.5 °F 29.87 in NNW 9.0 mph 9.0 mph 95% 0.00 in
07:52 50.5 °F 49.1 °F 29.87 in NNW 9.0 mph 15.0 mph 95% 0.00 in
07:57 50.2 °F 48.8 °F 29.88 in NNW 7.0 mph 10.0 mph 95% 0.00 in
08:02 50.1 °F 48.7 °F 29.87 in NNE 3.0 mph 8.0 mph 95% 0.00 in
08:07 49.9 °F 48.5 °F 29.88 in NW 7.0 mph 10.0 mph 95% 0.00 in
08:12 49.6 °F 48.2 °F 29.89 in NW 8.0 mph 10.0 mph 95% 0.00 in
08:17 49.2 °F 47.8 °F 29.90 in NNW 8.0 mph 10.0 mph 95% 0.00 in
08:22 48.9 °F 47.5 °F 29.91 in North 12.0 mph 12.0 mph 95% 0.00 in
08:27 48.5 °F 47.1 °F 29.91 in North 14.0 mph 14.0 mph 95% 0.00 in
08:32 48.1 °F 46.7 °F 29.91 in NNW 7.0 mph 14.0 mph 95% 0.00 in
08:37 47.8 °F 46.4 °F 29.92 in NNW 12.0 mph 15.0 mph 95% 0.00 in
08:42 47.4 °F 46.0 °F 29.92 in North 14.0 mph 16.0 mph 95% 0.00 in
08:47 47.1 °F 45.7 °F 29.93 in NNW 11.0 mph 13.0 mph 95% 0.00 in
08:52 46.7 °F 45.3 °F 29.93 in NNW 11.0 mph 16.0 mph 95% 0.00 in
08:57 46.1 °F 44.8 °F 29.93 in NW 10.0 mph 16.0 mph 95% 0.00 in
09:02 45.6 °F 44.2 °F 29.93 in North 7.0 mph 15.0 mph 95% 0.00 in
09:07 45.2 °F 43.9 °F 29.94 in NW 13.0 mph 14.0 mph 95% 0.00 in
09:12 44.8 °F 43.5 °F 29.95 in NNW 9.0 mph 11.0 mph 95% 0.00 in
09:17 44.0 °F 42.7 °F 29.94 in NNE 8.0 mph 15.0 mph 95% 0.00 in
09:22 43.6 °F 42.3 °F 29.95 in NNW 10.0 mph 14.0 mph 95% 0.00 in
09:27 43.2 °F 41.9 °F 29.95 in North 9.0 mph 16.0 mph 95% 0.00 in
09:32 42.9 °F 41.6 °F 29.95 in North 8.0 mph 15.0 mph 95% 0.00 in
09:37 42.5 °F 41.2 °F 29.95 in North 9.0 mph 13.0 mph 95% 0.00 in
09:42 42.1 °F 40.8 °F 29.95 in NNE 6.0 mph 14.0 mph 95% 0.00 in
09:47 41.8 °F 40.5 °F 29.95 in NNE 11.0 mph 18.0 mph 95% 0.00 in
09:52 41.5 °F 40.2 °F 29.95 in NNE 6.0 mph 12.0 mph 95% 0.00 in
09:57 41.5 °F 40.2 °F 29.96 in NNE 7.0 mph 10.0 mph 95% 0.00 in
10:02 41.3 °F 40.0 °F 29.97 in North 5.0 mph 8.0 mph 95% 0.00 in
10:08 41.1 °F 39.8 °F 29.97 in NNE 5.0 mph 10.0 mph 95% 0.00 in
10:13 41.1 °F 39.8 °F 29.97 in North 7.0 mph 7.0 mph 95% 0.00 in
10:18 40.9 °F 39.6 °F 29.97 in NNE 7.0 mph 8.0 mph 95% 0.00 in
10:23 40.8 °F 39.5 °F 29.98 in NNW 10.0 mph 11.0 mph 95% 0.00 in
10:28 40.7 °F 39.4 °F 29.98 in North 6.0 mph 12.0 mph 95% 0.00 in
10:33 40.8 °F 39.8 °F 29.98 in North 5.0 mph 9.0 mph 96% 0.00 in
10:38 41.1 °F 40.0 °F 29.97 in North 5.0 mph 8.0 mph 96% 0.00 in
10:43 41.0 °F 39.7 °F 29.97 in North 4.0 mph 8.0 mph 95% 0.00 in
10:48 41.0 °F 40.0 °F 29.97 in NNW 6.0 mph 12.0 mph 96% 0.00 in
10:53 40.8 °F 39.5 °F 29.97 in NW 9.0 mph 12.0 mph 95% 0.00 in
10:58 40.8 °F 39.5 °F 29.97 in NW 7.0 mph 13.0 mph 95% 0.00 in
11:03 40.7 °F 39.4 °F 29.98 in NW 13.0 mph 13.0 mph 95% 0.00 in
11:08 40.7 °F 39.4 °F 29.98 in NW 10.0 mph 10.0 mph 95% 0.00 in
11:13 40.5 °F 39.2 °F 29.98 in NW 6.0 mph 12.0 mph 95% 0.00 in
11:18 40.4 °F 39.1 °F 29.97 in WNW 7.0 mph 11.0 mph 95% 0.00 in
11:23 40.3 °F 39.0 °F 29.97 in NNW 8.0 mph 14.0 mph 95% 0.00 in
11:28 40.0 °F 38.4 °F 29.96 in NNW 6.0 mph 12.0 mph 94% 0.00 in
11:33 39.9 °F 38.6 °F 29.96 in NNE 5.0 mph 11.0 mph 95% 0.00 in
11:38 39.6 °F 38.0 °F 29.96 in NNW 9.0 mph 12.0 mph 94% 0.00 in
11:43 39.5 °F 38.2 °F 29.97 in NNW 14.0 mph 14.0 mph 95% 0.00 in
11:48 39.6 °F 38.3 °F 29.97 in North 10.0 mph 13.0 mph 95% 0.00 in
11:53 39.5 °F 38.2 °F 29.98 in North 9.0 mph 11.0 mph 95% 0.00 in
11:59 39.3 °F 38.0 °F 29.98 in NNW 9.0 mph 13.0 mph 95% 0.00 in
12:04 39.2 °F 37.9 °F 29.99 in NNW 8.0 mph 8.0 mph 95% 0.00 in
12:09 39.2 °F 37.9 °F 29.98 in NNW 9.0 mph 11.0 mph 95% 0.00 in
12:14 39.2 °F 37.9 °F 29.98 in North 7.0 mph 13.0 mph 95% 0.00 in
12:19 39.4 °F 38.1 °F 29.98 in NNE 6.0 mph 9.0 mph 95% 0.00 in
12:24 39.3 °F 37.7 °F 29.98 in NNW 4.0 mph 10.0 mph 94% 0.00 in
12:29 39.4 °F 38.1 °F 29.98 in NNW 10.0 mph 10.0 mph 95% 0.00 in
12:34 39.3 °F 37.7 °F 29.99 in North 8.0 mph 11.0 mph 94% 0.00 in
12:39 39.4 °F 37.8 °F 29.99 in NNW 4.0 mph 14.0 mph 94% 0.00 in
12:44 39.4 °F 37.8 °F 29.99 in North 5.0 mph 12.0 mph 94% 0.00 in
12:49 39.4 °F 37.8 °F 29.99 in NNW 7.0 mph 11.0 mph 94% 0.00 in
12:54 39.4 °F 37.8 °F 29.98 in NW 7.0 mph 7.0 mph 94% 0.00 in
12:59 39.5 °F 37.9 °F 29.99 in NW 5.0 mph 9.0 mph 94% 0.00 in
13:04 39.5 °F 37.9 °F 29.99 in NW 5.0 mph 11.0 mph 94% 0.00 in
13:09 39.5 °F 37.9 °F 29.99 in NNE 7.0 mph 10.0 mph 94% 0.00 in
13:14 39.6 °F 38.0 °F 29.99 in North 6.0 mph 10.0 mph 94% 0.00 in
13:19 39.5 °F 37.9 °F 29.99 in NW 7.0 mph 11.0 mph 94% 0.00 in
13:24 39.5 °F 37.9 °F 29.99 in NW 7.0 mph 10.0 mph 94% 0.00 in
13:29 39.3 °F 37.7 °F 29.99 in NNW 6.0 mph 10.0 mph 94% 0.00 in
13:34 39.5 °F 37.9 °F 29.99 in NW 8.0 mph 9.0 mph 94% 0.00 in
13:39 39.5 °F 37.9 °F 29.99 in North 8.0 mph 11.0 mph 94% 0.00 in
13:44 39.4 °F 37.8 °F 30.00 in NNE 8.0 mph 9.0 mph 94% 0.00 in
13:49 39.4 °F 37.8 °F 30.00 in NNW 4.0 mph 7.0 mph 94% 0.00 in
13:54 39.5 °F 37.9 °F 30.00 in NNW 5.0 mph 8.0 mph 94% 0.00 in
13:59 39.5 °F 37.9 °F 30.00 in NNW 5.0 mph 8.0 mph 94% 0.00 in
14:04 39.4 °F 37.8 °F 30.00 in NW 6.0 mph 9.0 mph 94% 0.00 in
14:09 39.3 °F 37.7 °F 29.99 in NNW 4.0 mph 9.0 mph 94% 0.00 in
14:14 39.3 °F 37.7 °F 29.99 in NW 9.0 mph 10.0 mph 94% 0.00 in
14:19 39.3 °F 37.7 °F 29.99 in North 10.0 mph 11.0 mph 94% 0.00 in
14:24 38.9 °F 37.0 °F 29.99 in NNE 8.0 mph 13.0 mph 93% 0.00 in
14:29 38.8 °F 37.2 °F 29.99 in NNE 5.0 mph 11.0 mph 94% 0.00 in
14:34 38.9 °F 37.3 °F 29.99 in NNE 6.0 mph 10.0 mph 94% 0.00 in
14:39 38.8 °F 37.0 °F 30.00 in North 8.0 mph 11.0 mph 93% 0.00 in
14:45 38.9 °F 37.3 °F 30.00 in NE 4.0 mph 7.0 mph 94% 0.00 in
14:50 39.0 °F 37.4 °F 30.00 in NNE 11.0 mph 11.0 mph 94% 0.00 in
14:55 38.8 °F 37.0 °F 30.00 in NNE 8.0 mph 11.0 mph 93% 0.00 in
15:00 38.6 °F 36.8 °F 30.00 in North 9.0 mph 11.0 mph 93% 0.00 in
15:05 38.6 °F 37.0 °F 30.00 in North 9.0 mph 10.0 mph 94% 0.00 in
15:10 38.5 °F 36.7 °F 30.00 in North 6.0 mph 10.0 mph 93% 0.00 in
15:15 38.6 °F 37.0 °F 30.00 in North 6.0 mph 9.0 mph 94% 0.00 in
15:20 38.7 °F 37.1 °F 30.00 in North 5.0 mph 8.0 mph 94% 0.00 in
15:25 38.8 °F 37.2 °F 30.01 in NW 6.0 mph 8.0 mph 94% 0.00 in
15:30 38.6 °F 36.8 °F 30.01 in NW 9.0 mph 11.0 mph 93% 0.00 in
15:35 38.4 °F 36.8 °F 30.01 in North 7.0 mph 9.0 mph 94% 0.00 in
15:40 38.2 °F 36.6 °F 30.01 in North 12.0 mph 12.0 mph 94% 0.00 in
15:45 38.0 °F 36.4 °F 30.02 in NNW 5.0 mph 12.0 mph 94% 0.00 in
15:50 38.0 °F 36.4 °F 30.02 in NNW 6.0 mph 10.0 mph 94% 0.00 in
15:55 37.9 °F 36.3 °F 30.02 in NW 7.0 mph 7.0 mph 94% 0.00 in
16:00 38.0 °F 36.4 °F 30.02 in NNE 6.0 mph 9.0 mph 94% 0.00 in
16:05 38.0 °F 36.7 °F 30.02 in NNW 5.0 mph 9.0 mph 95% 0.00 in
16:10 38.0 °F 36.4 °F 30.02 in NNW 8.0 mph 8.0 mph 94% 0.00 in
16:15 38.1 °F 36.5 °F 30.02 in NNW 6.0 mph 9.0 mph 94% 0.00 in
16:20 38.0 °F 36.4 °F 30.02 in NNE 7.0 mph 9.0 mph 94% 0.00 in
16:25 37.9 °F 36.3 °F 30.02 in North 4.0 mph 9.0 mph 94% 0.00 in
16:30 38.0 °F 36.4 °F 30.02 in NNW 3.0 mph 6.0 mph 94% 0.00 in
16:35 38.0 °F 36.4 °F 30.02 in North 5.0 mph 8.0 mph 94% 0.00 in
16:36 38.0 °F 36.4 °F 30.02 in NE 4.0 mph 5.0 mph 94% 0.00 in
16:41 38.0 °F 36.4 °F 30.02 in NNE 4.0 mph 7.0 mph 94% 0.00 in
16:46 37.9 °F 36.3 °F 30.03 in NE 6.0 mph 7.0 mph 94% 0.00 in
16:51 37.9 °F 36.3 °F 30.03 in ENE 5.0 mph 7.0 mph 94% 0.00 in
16:57 37.9 °F 36.3 °F 30.03 in NNW 2.0 mph 7.0 mph 94% 0.00 in
17:02 37.9 °F 36.3 °F 30.03 in North 4.0 mph 8.0 mph 94% 0.00 in
17:07 38.0 °F 36.4 °F 30.03 in NNE 5.0 mph 7.0 mph 94% 0.00 in
17:12 38.1 °F 36.5 °F 30.03 in NNE 6.0 mph 8.0 mph 94% 0.00 in
17:17 38.0 °F 36.4 °F 30.03 in NE 5.0 mph 5.0 mph 94% 0.00 in
17:22 38.1 °F 36.5 °F 30.04 in North 5.0 mph 6.0 mph 94% 0.00 in
17:27 38.0 °F 36.4 °F 30.04 in NE 4.0 mph 6.0 mph 94% 0.00 in
17:32 38.0 °F 36.4 °F 30.04 in NE 7.0 mph 9.0 mph 94% 0.00 in
17:37 38.0 °F 36.2 °F 30.04 in NNE 5.0 mph 9.0 mph 93% 0.00 in
17:42 38.0 °F 36.2 °F 30.04 in NNE 4.0 mph 7.0 mph 93% 0.00 in
17:47 38.1 °F 36.5 °F 30.05 in ENE 4.0 mph 5.0 mph 94% 0.00 in
17:52 38.1 °F 36.3 °F 30.05 in NE 2.0 mph 5.0 mph 93% 0.00 in
17:57 38.2 °F 36.6 °F 30.06 in North 2.0 mph 3.0 mph 94% 0.00 in
18:02 38.3 °F 36.7 °F 30.07 in NNW 1.0 mph 3.0 mph 94% 0.00 in
18:07 38.3 °F 36.7 °F 30.07 in NNE 3.0 mph 6.0 mph 94% 0.00 in
18:12 38.3 °F 36.7 °F 30.07 in NE 1.0 mph 4.0 mph 94% 0.00 in
18:17 38.2 °F 36.6 °F 30.07 in NNE 3.0 mph 7.0 mph 94% 0.00 in
18:22 38.2 °F 36.6 °F 30.06 in NNE 3.0 mph 6.0 mph 94% 0.00 in
18:27 38.2 °F 36.6 °F 30.06 in NNE 2.0 mph 8.0 mph 94% 0.00 in
18:32 38.2 °F 36.6 °F 30.05 in ENE 2.0 mph 5.0 mph 94% 0.00 in
18:37 38.1 °F 36.5 °F 30.05 in NNE 2.0 mph 7.0 mph 94% 0.00 in
18:42 38.1 °F 36.5 °F 30.05 in NE 2.0 mph 5.0 mph 94% 0.00 in
18:47 38.1 °F 36.5 °F 30.05 in ENE 3.0 mph 6.0 mph 94% 0.00 in
18:52 38.1 °F 36.5 °F 30.06 in East 4.0 mph 7.0 mph 94% 0.00 in
18:57 38.0 °F 36.4 °F 30.06 in NNE 4.0 mph 7.0 mph 94% 0.00 in
19:02 37.9 °F 36.6 °F 30.07 in NE 6.0 mph 6.0 mph 95% 0.00 in
19:07 37.8 °F 36.5 °F 30.07 in NE 3.0 mph 6.0 mph 95% 0.00 in
19:12 37.8 °F 36.5 °F 30.07 in North 4.0 mph 5.0 mph 95% 0.00 in
19:17 37.7 °F 36.4 °F 30.07 in NNE 4.0 mph 7.0 mph 95% 0.00 in
19:22 37.7 °F 36.4 °F 30.07 in North 5.0 mph 6.0 mph 95% 0.00 in
19:27 37.7 °F 36.4 °F 30.06 in NNE 6.0 mph 10.0 mph 95% 0.00 in
19:33 37.7 °F 36.4 °F 30.06 in NNE 5.0 mph 7.0 mph 95% 0.00 in
19:38 37.7 °F 36.7 °F 30.05 in NNE 4.0 mph 8.0 mph 96% 0.00 in
19:43 37.7 °F 36.7 °F 30.06 in NNE 4.0 mph 6.0 mph 96% 0.00 in
19:48 37.7 °F 36.7 °F 30.06 in East 3.0 mph 3.0 mph 96% 0.00 in
19:53 37.7 °F 36.7 °F 30.05 in NE 7.0 mph 7.0 mph 96% 0.00 in
19:58 37.6 °F 36.6 °F 30.05 in ENE 6.0 mph 8.0 mph 96% 0.00 in
20:03 37.6 °F 36.6 °F 30.06 in ENE 4.0 mph 5.0 mph 96% 0.00 in
20:08 37.5 °F 36.5 °F 30.05 in ENE 6.0 mph 12.0 mph 96% 0.00 in
20:13 37.4 °F 36.4 °F 30.06 in NNE 7.0 mph 8.0 mph 96% 0.00 in
20:18 37.3 °F 36.3 °F 30.05 in NNE 6.0 mph 11.0 mph 96% 0.00 in
20:23 37.3 °F 36.3 °F 30.05 in NNE 14.0 mph 14.0 mph 96% 0.00 in
20:28 37.3 °F 36.3 °F 30.05 in NNE 7.0 mph 12.0 mph 96% 0.00 in
20:33 37.3 °F 36.3 °F 30.05 in NNE 6.0 mph 10.0 mph 96% 0.00 in
20:38 37.3 °F 36.3 °F 30.05 in NE 2.0 mph 6.0 mph 96% 0.00 in
20:43 37.3 °F 36.5 °F 30.06 in ENE 7.0 mph 7.0 mph 97% 0.00 in
20:48 37.2 °F 36.2 °F 30.06 in NE 5.0 mph 8.0 mph 96% 0.00 in
20:53 37.1 °F 36.1 °F 30.07 in East 1.0 mph 6.0 mph 96% 0.00 in
20:58 37.1 °F 36.1 °F 30.07 in East 4.0 mph 7.0 mph 96% 0.00 in
21:03 36.9 °F 35.9 °F 30.07 in ENE 2.0 mph 4.0 mph 96% 0.00 in
21:08 36.9 °F 35.9 °F 30.07 in ENE 1.0 mph 5.0 mph 96% 0.00 in
21:14 36.9 °F 36.1 °F 30.07 in East 4.0 mph 6.0 mph 97% 0.00 in
21:19 36.9 °F 36.1 °F 30.07 in ESE 1.0 mph 7.0 mph 97% 0.00 in
21:24 36.9 °F 36.1 °F 30.07 in ENE 5.0 mph 9.0 mph 97% 0.00 in
21:29 36.7 °F 35.7 °F 30.07 in NNE 4.0 mph 8.0 mph 96% 0.00 in
21:34 36.7 °F 35.9 °F 30.07 in NNE 6.0 mph 8.0 mph 97% 0.00 in
21:39 36.6 °F 35.8 °F 30.07 in NE 4.0 mph 7.0 mph 97% 0.00 in
21:44 36.6 °F 35.8 °F 30.07 in NNE 5.0 mph 8.0 mph 97% 0.00 in
21:49 36.5 °F 35.7 °F 30.08 in NE 4.0 mph 6.0 mph 97% 0.00 in
21:54 36.5 °F 35.7 °F 30.07 in East 3.0 mph 7.0 mph 97% 0.00 in
21:59 36.5 °F 35.7 °F 30.07 in ENE 5.0 mph 5.0 mph 97% 0.00 in
22:04 36.6 °F 35.8 °F 30.07 in ENE 5.0 mph 7.0 mph 97% 0.00 in
22:09 36.7 °F 35.9 °F 30.06 in ENE 2.0 mph 6.0 mph 97% 0.00 in
22:14 36.7 °F 35.9 °F 30.06 in ENE 2.0 mph 5.0 mph 97% 0.00 in
22:19 36.7 °F 35.9 °F 30.06 in ENE 4.0 mph 7.0 mph 97% 0.00 in
22:24 36.7 °F 35.9 °F 30.07 in NE 3.0 mph 7.0 mph 97% 0.00 in
22:29 36.7 °F 35.9 °F 30.07 in NNE 2.0 mph 6.0 mph 97% 0.00 in
22:34 36.7 °F 35.9 °F 30.07 in NE 4.0 mph 8.0 mph 97% 0.00 in
22:39 36.7 °F 35.9 °F 30.07 in NE 2.0 mph 6.0 mph 97% 0.00 in
22:44 36.7 °F 35.9 °F 30.07 in East 5.0 mph 9.0 mph 97% 0.00 in
22:49 36.7 °F 35.9 °F 30.07 in NNE 4.0 mph 7.0 mph 97% 0.00 in
22:54 36.6 °F 35.8 °F 30.07 in NE 8.0 mph 8.0 mph 97% 0.00 in
22:59 36.6 °F 35.8 °F 30.08 in ENE 4.0 mph 9.0 mph 97% 0.00 in
23:04 36.7 °F 35.9 °F 30.07 in ENE 4.0 mph 4.0 mph 97% 0.00 in
23:09 36.8 °F 36.0 °F 30.07 in NNE 3.0 mph 4.0 mph 97% 0.00 in
23:14 36.7 °F 35.9 °F 30.07 in NE 5.0 mph 9.0 mph 97% 0.00 in
23:19 36.8 °F 36.0 °F 30.07 in NE 3.0 mph 7.0 mph 97% 0.00 in
23:24 36.8 °F 36.0 °F 30.08 in NNE 4.0 mph 7.0 mph 97% 0.00 in
23:29 36.8 °F 36.0 °F 30.07 in ENE 3.0 mph 6.0 mph 97% 0.00 in
23:34 36.8 °F 36.0 °F 30.07 in ENE 4.0 mph 5.0 mph 97% 0.00 in
23:39 36.8 °F 36.0 °F 30.07 in East 5.0 mph 7.0 mph 97% 0.00 in
23:44 36.8 °F 36.0 °F 30.07 in ENE 4.0 mph 6.0 mph 97% 0.00 in
23:49 36.8 °F 36.0 °F 30.07 in ENE 5.0 mph 8.0 mph 97% 0.00 in
23:54 36.8 °F 36.0 °F 30.06 in ENE 8.0 mph 8.0 mph 97% 0.00 in
23:59 36.8 °F 36.0 °F 30.07 in ENE 4.0 mph 9.0 mph 97% 0.00 in
Compliments of Weather Underground